sensor_id;sensor_type;location;lat;lon;timestamp;P1;durP1;ratioP1;P2;durP2;ratioP2
51925;SDS011;37952;51.938;15.480;2023-02-28T00:01:21;14.90;;;8.00;;
51925;SDS011;37952;51.938;15.480;2023-02-28T00:04:28;13.20;;;7.60;;
51925;SDS011;37952;51.938;15.480;2023-02-28T00:19:24;6.10;;;5.50;;
51925;SDS011;37952;51.938;15.480;2023-02-28T00:37:45;5.30;;;4.30;;
51925;SDS011;37952;51.938;15.480;2023-02-28T00:41:31;6.70;;;3.90;;
51925;SDS011;37952;51.938;15.480;2023-02-28T00:44:41;4.60;;;4.20;;
51925;SDS011;37952;51.938;15.480;2023-02-28T00:48:04;5.60;;;4.70;;
51925;SDS011;37952;51.938;15.480;2023-02-28T00:51:10;5.50;;;5.00;;
51925;SDS011;37952;51.938;15.480;2023-02-28T00:54:54;11.50;;;7.30;;
51925;SDS011;37952;51.938;15.480;2023-02-28T00:58:26;9.80;;;7.50;;
51925;SDS011;37952;51.938;15.480;2023-02-28T01:01:43;11.30;;;8.90;;
51925;SDS011;37952;51.938;15.480;2023-02-28T01:04:47;13.10;;;10.00;;
51925;SDS011;37952;51.938;15.480;2023-02-28T01:07:57;16.10;;;10.30;;
51925;SDS011;37952;51.938;15.480;2023-02-28T01:11:34;12.90;;;9.30;;
51925;SDS011;37952;51.938;15.480;2023-02-28T01:22:32;20.90;;;10.80;;
51925;SDS011;37952;51.938;15.480;2023-02-28T01:29:25;20.50;;;12.70;;
51925;SDS011;37952;51.938;15.480;2023-02-28T01:32:48;18.00;;;11.70;;
51925;SDS011;37952;51.938;15.480;2023-02-28T01:36:00;18.80;;;12.00;;
51925;SDS011;37952;51.938;15.480;2023-02-28T01:39:54;20.90;;;12.20;;
51925;SDS011;37952;51.938;15.480;2023-02-28T01:43:00;20.30;;;12.60;;
51925;SDS011;37952;51.938;15.480;2023-02-28T01:51:39;22.60;;;13.20;;
51925;SDS011;37952;51.938;15.480;2023-02-28T01:54:52;26.40;;;15.30;;
51925;SDS011;37952;51.938;15.480;2023-02-28T01:58:10;28.00;;;15.40;;
51925;SDS011;37952;51.938;15.480;2023-02-28T02:01:14;24.50;;;15.00;;
51925;SDS011;37952;51.938;15.480;2023-02-28T02:04:25;24.10;;;15.60;;
51925;SDS011;37952;51.938;15.480;2023-02-28T02:08:05;30.20;;;16.30;;
51925;SDS011;37952;51.938;15.480;2023-02-28T02:11:18;26.10;;;16.40;;
51925;SDS011;37952;51.938;15.480;2023-02-28T02:14:31;25.60;;;16.10;;
51925;SDS011;37952;51.938;15.480;2023-02-28T02:17:45;29.30;;;16.70;;
51925;SDS011;37952;51.938;15.480;2023-02-28T02:29:59;35.70;;;17.00;;
51925;SDS011;37952;51.938;15.480;2023-02-28T02:36:38;27.10;;;17.00;;
51925;SDS011;37952;51.938;15.480;2023-02-28T02:44:54;26.90;;;15.70;;
51925;SDS011;37952;51.938;15.480;2023-02-28T02:48:19;23.00;;;15.00;;
51925;SDS011;37952;51.938;15.480;2023-02-28T02:51:37;30.30;;;16.90;;
51925;SDS011;37952;51.938;15.480;2023-02-28T02:54:56;25.00;;;16.10;;
51925;SDS011;37952;51.938;15.480;2023-02-28T03:02:58;27.70;;;16.70;;
51925;SDS011;37952;51.938;15.480;2023-02-28T03:13:36;28.70;;;17.00;;
51925;SDS011;37952;51.938;15.480;2023-02-28T03:21:38;26.10;;;16.10;;
51925;SDS011;37952;51.938;15.480;2023-02-28T03:24:50;24.80;;;15.00;;
51925;SDS011;37952;51.938;15.480;2023-02-28T03:40:17;25.70;;;14.80;;
51925;SDS011;37952;51.938;15.480;2023-02-28T03:43:04;26.00;;;16.00;;
51925;SDS011;37952;51.938;15.480;2023-02-28T03:46:28;26.10;;;16.20;;
51925;SDS011;37952;51.938;15.480;2023-02-28T03:50:21;32.60;;;16.10;;
51925;SDS011;37952;51.938;15.480;2023-02-28T04:01:30;26.20;;;15.90;;
51925;SDS011;37952;51.938;15.480;2023-02-28T04:04:48;27.90;;;15.80;;
51925;SDS011;37952;51.938;15.480;2023-02-28T04:07:59;24.30;;;14.70;;
51925;SDS011;37952;51.938;15.480;2023-02-28T04:11:22;26.00;;;13.60;;
51925;SDS011;37952;51.938;15.480;2023-02-28T04:18:53;18.80;;;12.80;;
51925;SDS011;37952;51.938;15.480;2023-02-28T04:25:46;23.80;;;13.50;;
51925;SDS011;37952;51.938;15.480;2023-02-28T04:33:44;20.60;;;12.70;;
51925;SDS011;37952;51.938;15.480;2023-02-28T04:37:08;22.90;;;13.80;;
51925;SDS011;37952;51.938;15.480;2023-02-28T04:40:21;23.10;;;14.40;;
51925;SDS011;37952;51.938;15.480;2023-02-28T04:43:23;24.90;;;13.10;;
51925;SDS011;37952;51.938;15.480;2023-02-28T04:46:28;22.80;;;13.50;;
51925;SDS011;37952;51.938;15.480;2023-02-28T04:49:42;24.60;;;14.60;;
51925;SDS011;37952;51.938;15.480;2023-02-28T04:52:48;23.00;;;14.20;;
51925;SDS011;37952;51.938;15.480;2023-02-28T04:55:51;21.40;;;14.10;;
51925;SDS011;37952;51.938;15.480;2023-02-28T05:07:23;19.30;;;12.40;;
51925;SDS011;37952;51.938;15.480;2023-02-28T05:10:26;19.70;;;12.70;;
51925;SDS011;37952;51.938;15.480;2023-02-28T05:13:29;20.80;;;12.80;;
51925;SDS011;37952;51.938;15.480;2023-02-28T05:16:32;21.10;;;13.20;;
51925;SDS011;37952;51.938;15.480;2023-02-28T05:19:35;19.20;;;13.30;;
51925;SDS011;37952;51.938;15.480;2023-02-28T05:22:40;20.70;;;13.10;;
51925;SDS011;37952;51.938;15.480;2023-02-28T05:25:43;20.80;;;12.50;;
51925;SDS011;37952;51.938;15.480;2023-02-28T05:28:46;19.90;;;12.40;;
51925;SDS011;37952;51.938;15.480;2023-02-28T05:31:49;21.40;;;12.50;;
51925;SDS011;37952;51.938;15.480;2023-02-28T05:34:52;22.80;;;13.40;;
51925;SDS011;37952;51.938;15.480;2023-02-28T05:37:55;18.60;;;13.10;;
51925;SDS011;37952;51.938;15.480;2023-02-28T05:40:58;19.50;;;13.30;;
51925;SDS011;37952;51.938;15.480;2023-02-28T05:44:01;21.10;;;12.70;;
51925;SDS011;37952;51.938;15.480;2023-02-28T05:47:04;21.10;;;12.70;;
51925;SDS011;37952;51.938;15.480;2023-02-28T05:50:07;18.00;;;9.70;;
51925;SDS011;37952;51.938;15.480;2023-02-28T05:53:11;18.70;;;9.30;;
51925;SDS011;37952;51.938;15.480;2023-02-28T05:56:14;20.70;;;10.40;;
51925;SDS011;37952;51.938;15.480;2023-02-28T05:59:17;26.10;;;12.00;;
51925;SDS011;37952;51.938;15.480;2023-02-28T06:02:20;22.70;;;12.40;;
51925;SDS011;37952;51.938;15.480;2023-02-28T06:05:23;17.40;;;13.20;;
51925;SDS011;37952;51.938;15.480;2023-02-28T06:08:27;24.30;;;14.90;;
51925;SDS011;37952;51.938;15.480;2023-02-28T06:11:30;30.70;;;18.80;;
51925;SDS011;37952;51.938;15.480;2023-02-28T06:14:34;30.00;;;17.90;;
51925;SDS011;37952;51.938;15.480;2023-02-28T06:17:36;25.00;;;17.40;;
51925;SDS011;37952;51.938;15.480;2023-02-28T06:20:39;28.00;;;17.80;;
51925;SDS011;37952;51.938;15.480;2023-02-28T06:23:42;32.20;;;18.60;;
51925;SDS011;37952;51.938;15.480;2023-02-28T06:26:46;35.70;;;19.40;;
51925;SDS011;37952;51.938;15.480;2023-02-28T06:29:53;35.70;;;20.80;;
51925;SDS011;37952;51.938;15.480;2023-02-28T06:32:58;37.30;;;20.60;;
51925;SDS011;37952;51.938;15.480;2023-02-28T06:36:01;32.90;;;19.90;;
51925;SDS011;37952;51.938;15.480;2023-02-28T06:39:04;41.30;;;21.80;;
51925;SDS011;37952;51.938;15.480;2023-02-28T06:42:07;43.80;;;25.20;;
51925;SDS011;37952;51.938;15.480;2023-02-28T06:45:10;44.20;;;23.80;;
51925;SDS011;37952;51.938;15.480;2023-02-28T06:48:14;36.70;;;23.50;;
51925;SDS011;37952;51.938;15.480;2023-02-28T06:51:19;29.40;;;16.50;;
51925;SDS011;37952;51.938;15.480;2023-02-28T06:54:25;29.60;;;14.90;;
51925;SDS011;37952;51.938;15.480;2023-02-28T06:57:31;23.40;;;14.10;;
51925;SDS011;37952;51.938;15.480;2023-02-28T07:00:35;33.00;;;15.90;;
51925;SDS011;37952;51.938;15.480;2023-02-28T07:03:38;28.30;;;16.60;;
51925;SDS011;37952;51.938;15.480;2023-02-28T07:06:42;30.90;;;17.80;;
51925;SDS011;37952;51.938;15.480;2023-02-28T07:09:46;31.10;;;18.90;;
51925;SDS011;37952;51.938;15.480;2023-02-28T07:12:49;38.90;;;20.00;;
51925;SDS011;37952;51.938;15.480;2023-02-28T07:15:57;34.80;;;20.40;;
51925;SDS011;37952;51.938;15.480;2023-02-28T07:19:03;31.50;;;20.80;;
51925;SDS011;37952;51.938;15.480;2023-02-28T07:22:06;34.50;;;21.50;;
51925;SDS011;37952;51.938;15.480;2023-02-28T07:28:35;32.40;;;21.40;;
51925;SDS011;37952;51.938;15.480;2023-02-28T07:31:38;32.10;;;21.30;;
51925;SDS011;37952;51.938;15.480;2023-02-28T07:34:43;40.00;;;24.30;;
51925;SDS011;37952;51.938;15.480;2023-02-28T07:37:46;39.60;;;23.70;;
51925;SDS011;37952;51.938;15.480;2023-02-28T07:40:49;32.20;;;20.90;;
51925;SDS011;37952;51.938;15.480;2023-02-28T07:43:55;33.80;;;22.00;;
51925;SDS011;37952;51.938;15.480;2023-02-28T07:46:59;39.80;;;23.90;;
51925;SDS011;37952;51.938;15.480;2023-02-28T07:50:02;35.20;;;17.60;;
51925;SDS011;37952;51.938;15.480;2023-02-28T07:53:06;28.10;;;14.20;;
51925;SDS011;37952;51.938;15.480;2023-02-28T07:56:09;22.70;;;13.20;;
51925;SDS011;37952;51.938;15.480;2023-02-28T07:59:13;25.50;;;13.90;;
51925;SDS011;37952;51.938;15.480;2023-02-28T08:02:16;22.50;;;12.80;;
51925;SDS011;37952;51.938;15.480;2023-02-28T08:05:21;21.70;;;12.80;;
51925;SDS011;37952;51.938;15.480;2023-02-28T08:08:25;21.50;;;12.50;;
51925;SDS011;37952;51.938;15.480;2023-02-28T08:11:31;24.00;;;13.20;;
51925;SDS011;37952;51.938;15.480;2023-02-28T08:14:34;21.40;;;13.60;;
51925;SDS011;37952;51.938;15.480;2023-02-28T08:17:44;17.00;;;12.60;;
51925;SDS011;37952;51.938;15.480;2023-02-28T08:20:50;17.30;;;11.90;;
51925;SDS011;37952;51.938;15.480;2023-02-28T08:23:58;17.30;;;11.10;;
51925;SDS011;37952;51.938;15.480;2023-02-28T08:27:01;13.50;;;9.50;;
51925;SDS011;37952;51.938;15.480;2023-02-28T08:30:04;16.80;;;9.30;;
51925;SDS011;37952;51.938;15.480;2023-02-28T08:33:08;12.40;;;8.40;;
51925;SDS011;37952;51.938;15.480;2023-02-28T08:36:11;9.20;;;7.60;;
51925;SDS011;37952;51.938;15.480;2023-02-28T08:39:15;7.00;;;5.80;;
51925;SDS011;37952;51.938;15.480;2023-02-28T08:42:17;10.70;;;6.30;;
51925;SDS011;37952;51.938;15.480;2023-02-28T08:45:22;8.50;;;5.70;;
51925;SDS011;37952;51.938;15.480;2023-02-28T08:48:26;5.60;;;5.20;;
51925;SDS011;37952;51.938;15.480;2023-02-28T08:51:31;4.80;;;4.30;;
51925;SDS011;37952;51.938;15.480;2023-02-28T08:54:35;5.40;;;4.90;;
51925;SDS011;37952;51.938;15.480;2023-02-28T08:57:38;6.60;;;5.30;;
51925;SDS011;37952;51.938;15.480;2023-02-28T09:00:58;7.40;;;5.80;;
51925;SDS011;37952;51.938;15.480;2023-02-28T09:04:02;7.90;;;5.90;;
51925;SDS011;37952;51.938;15.480;2023-02-28T09:07:05;6.10;;;5.10;;
51925;SDS011;37952;51.938;15.480;2023-02-28T09:10:08;5.20;;;4.70;;
51925;SDS011;37952;51.938;15.480;2023-02-28T09:13:12;4.10;;;3.60;;
51925;SDS011;37952;51.938;15.480;2023-02-28T09:16:15;3.30;;;3.00;;
51925;SDS011;37952;51.938;15.480;2023-02-28T09:19:19;4.90;;;3.10;;
51925;SDS011;37952;51.938;15.480;2023-02-28T09:22:22;3.10;;;2.90;;
51925;SDS011;37952;51.938;15.480;2023-02-28T09:25:25;3.70;;;3.20;;
51925;SDS011;37952;51.938;15.480;2023-02-28T09:32:01;5.50;;;3.00;;
51925;SDS011;37952;51.938;15.480;2023-02-28T09:35:05;2.10;;;2.00;;
51925;SDS011;37952;51.938;15.480;2023-02-28T09:38:09;3.90;;;2.40;;
51925;SDS011;37952;51.938;15.480;2023-02-28T09:41:14;3.80;;;2.60;;
51925;SDS011;37952;51.938;15.480;2023-02-28T09:44:22;2.70;;;2.50;;
51925;SDS011;37952;51.938;15.480;2023-02-28T09:47:39;3.00;;;2.70;;
51925;SDS011;37952;51.938;15.480;2023-02-28T09:51:00;2.90;;;2.70;;
51925;SDS011;37952;51.938;15.480;2023-02-28T09:54:13;3.30;;;3.00;;
51925;SDS011;37952;51.938;15.480;2023-02-28T10:00:36;2.30;;;2.20;;
51925;SDS011;37952;51.938;15.480;2023-02-28T10:03:43;3.70;;;2.70;;
51925;SDS011;37952;51.938;15.480;2023-02-28T10:06:53;3.90;;;2.60;;
51925;SDS011;37952;51.938;15.480;2023-02-28T10:09:57;3.10;;;2.90;;
51925;SDS011;37952;51.938;15.480;2023-02-28T10:13:04;4.40;;;2.80;;
51925;SDS011;37952;51.938;15.480;2023-02-28T10:16:26;3.00;;;2.60;;
51925;SDS011;37952;51.938;15.480;2023-02-28T10:19:39;2.80;;;2.60;;
51925;SDS011;37952;51.938;15.480;2023-02-28T10:22:53;3.30;;;2.70;;
51925;SDS011;37952;51.938;15.480;2023-02-28T10:26:00;4.40;;;3.40;;
51925;SDS011;37952;51.938;15.480;2023-02-28T10:29:13;4.50;;;3.80;;
51925;SDS011;37952;51.938;15.480;2023-02-28T10:32:18;6.00;;;4.40;;
51925;SDS011;37952;51.938;15.480;2023-02-28T10:35:24;5.30;;;4.40;;
51925;SDS011;37952;51.938;15.480;2023-02-28T10:38:35;7.30;;;4.50;;
51925;SDS011;37952;51.938;15.480;2023-02-28T10:41:43;4.90;;;4.50;;
51925;SDS011;37952;51.938;15.480;2023-02-28T10:44:46;6.60;;;3.60;;
51925;SDS011;37952;51.938;15.480;2023-02-28T10:47:51;5.10;;;4.50;;
51925;SDS011;37952;51.938;15.480;2023-02-28T10:51:01;6.90;;;4.20;;
51925;SDS011;37952;51.938;15.480;2023-02-28T10:54:14;4.80;;;4.30;;
51925;SDS011;37952;51.938;15.480;2023-02-28T10:57:21;7.80;;;4.70;;
51925;SDS011;37952;51.938;15.480;2023-02-28T11:00:34;4.70;;;4.30;;
51925;SDS011;37952;51.938;15.480;2023-02-28T11:03:38;4.80;;;4.50;;
51925;SDS011;37952;51.938;15.480;2023-02-28T11:06:42;4.90;;;4.30;;
51925;SDS011;37952;51.938;15.480;2023-02-28T11:09:46;7.40;;;4.80;;
51925;SDS011;37952;51.938;15.480;2023-02-28T11:12:56;5.60;;;4.50;;
51925;SDS011;37952;51.938;15.480;2023-02-28T11:16:04;5.00;;;4.60;;
51925;SDS011;37952;51.938;15.480;2023-02-28T11:19:15;6.50;;;5.90;;
51925;SDS011;37952;51.938;15.480;2023-02-28T11:22:26;6.00;;;4.90;;
51925;SDS011;37952;51.938;15.480;2023-02-28T11:25:33;4.80;;;4.40;;
51925;SDS011;37952;51.938;15.480;2023-02-28T11:28:40;5.10;;;4.60;;
51925;SDS011;37952;51.938;15.480;2023-02-28T11:32:00;6.30;;;4.30;;
51925;SDS011;37952;51.938;15.480;2023-02-28T11:35:16;5.20;;;4.70;;
51925;SDS011;37952;51.938;15.480;2023-02-28T11:38:26;7.40;;;4.10;;
51925;SDS011;37952;51.938;15.480;2023-02-28T11:48:41;4.10;;;3.80;;
51925;SDS011;37952;51.938;15.480;2023-02-28T11:51:59;5.50;;;4.50;;
51925;SDS011;37952;51.938;15.480;2023-02-28T11:55:30;4.90;;;4.00;;
51925;SDS011;37952;51.938;15.480;2023-02-28T12:05:22;4.60;;;4.30;;
51925;SDS011;37952;51.938;15.480;2023-02-28T12:12:15;4.10;;;3.90;;
51925;SDS011;37952;51.938;15.480;2023-02-28T12:19:19;4.60;;;3.70;;
51925;SDS011;37952;51.938;15.480;2023-02-28T12:22:30;4.80;;;4.40;;
51925;SDS011;37952;51.938;15.480;2023-02-28T12:25:52;5.20;;;3.90;;
51925;SDS011;37952;51.938;15.480;2023-02-28T12:29:07;4.60;;;4.30;;
51925;SDS011;37952;51.938;15.480;2023-02-28T12:32:21;5.10;;;4.70;;
51925;SDS011;37952;51.938;15.480;2023-02-28T12:35:27;5.00;;;4.20;;
51925;SDS011;37952;51.938;15.480;2023-02-28T12:38:43;4.20;;;3.90;;
51925;SDS011;37952;51.938;15.480;2023-02-28T12:41:54;4.70;;;4.30;;
51925;SDS011;37952;51.938;15.480;2023-02-28T12:45:07;5.00;;;4.40;;
51925;SDS011;37952;51.938;15.480;2023-02-28T12:48:20;5.50;;;5.00;;
51925;SDS011;37952;51.938;15.480;2023-02-28T12:51:36;6.20;;;4.70;;
51925;SDS011;37952;51.938;15.480;2023-02-28T12:58:31;5.30;;;4.80;;
51925;SDS011;37952;51.938;15.480;2023-02-28T13:01:44;5.40;;;4.70;;
51925;SDS011;37952;51.938;15.480;2023-02-28T13:08:10;5.00;;;4.60;;
51925;SDS011;37952;51.938;15.480;2023-02-28T13:11:40;5.40;;;4.90;;
51925;SDS011;37952;51.938;15.480;2023-02-28T13:15:02;6.00;;;4.50;;
51925;SDS011;37952;51.938;15.480;2023-02-28T13:18:20;4.70;;;4.30;;
51925;SDS011;37952;51.938;15.480;2023-02-28T13:21:49;5.40;;;5.00;;
51925;SDS011;37952;51.938;15.480;2023-02-28T13:24:56;8.60;;;4.70;;
51925;SDS011;37952;51.938;15.480;2023-02-28T13:28:01;5.10;;;4.60;;
51925;SDS011;37952;51.938;15.480;2023-02-28T13:31:08;6.10;;;5.60;;
51925;SDS011;37952;51.938;15.480;2023-02-28T13:34:15;5.90;;;5.50;;
51925;SDS011;37952;51.938;15.480;2023-02-28T13:40:30;5.00;;;4.60;;
51925;SDS011;37952;51.938;15.480;2023-02-28T13:50:30;4.50;;;4.00;;
51925;SDS011;37952;51.938;15.480;2023-02-28T13:53:46;4.30;;;3.90;;
51925;SDS011;37952;51.938;15.480;2023-02-28T14:00:55;4.50;;;4.10;;
51925;SDS011;37952;51.938;15.480;2023-02-28T14:07:40;5.10;;;3.60;;
51925;SDS011;37952;51.938;15.480;2023-02-28T14:11:03;4.70;;;4.40;;
51925;SDS011;37952;51.938;15.480;2023-02-28T14:14:09;4.30;;;3.90;;
51925;SDS011;37952;51.938;15.480;2023-02-28T14:17:33;4.00;;;3.50;;
51925;SDS011;37952;51.938;15.480;2023-02-28T14:20:36;3.90;;;3.60;;
51925;SDS011;37952;51.938;15.480;2023-02-28T14:23:45;5.00;;;3.40;;
51925;SDS011;37952;51.938;15.480;2023-02-28T14:26:56;3.90;;;3.50;;
51925;SDS011;37952;51.938;15.480;2023-02-28T14:30:17;4.10;;;3.60;;
51925;SDS011;37952;51.938;15.480;2023-02-28T14:33:48;3.60;;;3.30;;
51925;SDS011;37952;51.938;15.480;2023-02-28T14:36:58;3.80;;;3.60;;
51925;SDS011;37952;51.938;15.480;2023-02-28T14:40:11;4.50;;;4.10;;
51925;SDS011;37952;51.938;15.480;2023-02-28T14:43:22;4.80;;;4.40;;
51925;SDS011;37952;51.938;15.480;2023-02-28T14:46:37;4.90;;;4.30;;
51925;SDS011;37952;51.938;15.480;2023-02-28T14:49:43;4.90;;;3.80;;
51925;SDS011;37952;51.938;15.480;2023-02-28T14:52:53;3.70;;;3.50;;
51925;SDS011;37952;51.938;15.480;2023-02-28T14:55:57;4.20;;;3.90;;
51925;SDS011;37952;51.938;15.480;2023-02-28T15:02:44;3.60;;;3.40;;
51925;SDS011;37952;51.938;15.480;2023-02-28T15:05:54;4.10;;;3.80;;
51925;SDS011;37952;51.938;15.480;2023-02-28T15:09:15;10.10;;;3.90;;
51925;SDS011;37952;51.938;15.480;2023-02-28T15:12:19;5.10;;;3.90;;
51925;SDS011;37952;51.938;15.480;2023-02-28T15:19:14;3.80;;;3.50;;
51925;SDS011;37952;51.938;15.480;2023-02-28T15:22:28;4.40;;;4.00;;
51925;SDS011;37952;51.938;15.480;2023-02-28T15:25:38;5.80;;;3.90;;
51925;SDS011;37952;51.938;15.480;2023-02-28T15:28:43;4.00;;;3.70;;
51925;SDS011;37952;51.938;15.480;2023-02-28T15:32:06;4.80;;;4.50;;
51925;SDS011;37952;51.938;15.480;2023-02-28T15:38:29;5.80;;;4.60;;
51925;SDS011;37952;51.938;15.480;2023-02-28T15:41:36;6.10;;;4.60;;
51925;SDS011;37952;51.938;15.480;2023-02-28T15:44:43;5.60;;;5.10;;
51925;SDS011;37952;51.938;15.480;2023-02-28T15:52:41;5.00;;;4.60;;
51925;SDS011;37952;51.938;15.480;2023-02-28T15:55:55;4.90;;;4.50;;
51925;SDS011;37952;51.938;15.480;2023-02-28T15:59:04;4.60;;;4.00;;
51925;SDS011;37952;51.938;15.480;2023-02-28T16:08:36;6.30;;;4.70;;
51925;SDS011;37952;51.938;15.480;2023-02-28T16:11:40;5.10;;;4.60;;
51925;SDS011;37952;51.938;15.480;2023-02-28T16:14:46;5.20;;;4.80;;
51925;SDS011;37952;51.938;15.480;2023-02-28T16:17:53;5.70;;;5.20;;
51925;SDS011;37952;51.938;15.480;2023-02-28T16:20:56;5.90;;;5.30;;
51925;SDS011;37952;51.938;15.480;2023-02-28T16:23:59;6.10;;;5.50;;
51925;SDS011;37952;51.938;15.480;2023-02-28T16:27:02;9.00;;;5.50;;
51925;SDS011;37952;51.938;15.480;2023-02-28T16:30:06;8.70;;;5.90;;
51925;SDS011;37952;51.938;15.480;2023-02-28T16:33:25;10.20;;;6.30;;
51925;SDS011;37952;51.938;15.480;2023-02-28T16:36:29;10.20;;;5.80;;
51925;SDS011;37952;51.938;15.480;2023-02-28T16:39:32;8.00;;;6.70;;
51925;SDS011;37952;51.938;15.480;2023-02-28T16:42:35;12.20;;;7.50;;
51925;SDS011;37952;51.938;15.480;2023-02-28T16:45:40;17.10;;;8.70;;
51925;SDS011;37952;51.938;15.480;2023-02-28T16:48:43;12.70;;;7.90;;
51925;SDS011;37952;51.938;15.480;2023-02-28T16:51:47;19.10;;;8.00;;
51925;SDS011;37952;51.938;15.480;2023-02-28T16:58:36;13.10;;;8.70;;
51925;SDS011;37952;51.938;15.480;2023-02-28T17:01:39;16.30;;;10.60;;
51925;SDS011;37952;51.938;15.480;2023-02-28T17:04:42;11.70;;;9.10;;
51925;SDS011;37952;51.938;15.480;2023-02-28T17:07:45;14.70;;;9.90;;
51925;SDS011;37952;51.938;15.480;2023-02-28T17:14:59;9.70;;;8.30;;
51925;SDS011;37952;51.938;15.480;2023-02-28T17:18:02;12.70;;;9.40;;
51925;SDS011;37952;51.938;15.480;2023-02-28T17:21:09;10.80;;;8.70;;
51925;SDS011;37952;51.938;15.480;2023-02-28T17:24:16;13.90;;;9.40;;
51925;SDS011;37952;51.938;15.480;2023-02-28T17:30:40;17.10;;;11.60;;
51925;SDS011;37952;51.938;15.480;2023-02-28T17:33:49;24.20;;;13.00;;
51925;SDS011;37952;51.938;15.480;2023-02-28T17:36:52;19.80;;;10.50;;
51925;SDS011;37952;51.938;15.480;2023-02-28T17:39:55;15.80;;;10.70;;
51925;SDS011;37952;51.938;15.480;2023-02-28T17:46:36;17.10;;;9.90;;
51925;SDS011;37952;51.938;15.480;2023-02-28T17:49:40;18.20;;;11.80;;
51925;SDS011;37952;51.938;15.480;2023-02-28T17:52:44;15.10;;;11.70;;
51925;SDS011;37952;51.938;15.480;2023-02-28T17:55:47;17.70;;;11.30;;
51925;SDS011;37952;51.938;15.480;2023-02-28T17:58:51;17.90;;;12.00;;
51925;SDS011;37952;51.938;15.480;2023-02-28T18:01:55;16.40;;;11.30;;
51925;SDS011;37952;51.938;15.480;2023-02-28T18:04:58;15.80;;;11.10;;
51925;SDS011;37952;51.938;15.480;2023-02-28T18:08:02;13.80;;;10.80;;
51925;SDS011;37952;51.938;15.480;2023-02-28T18:11:05;15.70;;;12.10;;
51925;SDS011;37952;51.938;15.480;2023-02-28T18:18:23;18.10;;;10.60;;
51925;SDS011;37952;51.938;15.480;2023-02-28T18:25:12;15.30;;;11.80;;
51925;SDS011;37952;51.938;15.480;2023-02-28T18:28:19;23.50;;;11.40;;
51925;SDS011;37952;51.938;15.480;2023-02-28T18:31:22;18.30;;;12.20;;
51925;SDS011;37952;51.938;15.480;2023-02-28T18:34:26;18.90;;;11.60;;
51925;SDS011;37952;51.938;15.480;2023-02-28T18:42:42;19.10;;;12.40;;
51925;SDS011;37952;51.938;15.480;2023-02-28T18:45:45;24.40;;;14.30;;
51925;SDS011;37952;51.938;15.480;2023-02-28T18:53:58;22.40;;;12.90;;
51925;SDS011;37952;51.938;15.480;2023-02-28T18:57:02;23.90;;;12.80;;
51925;SDS011;37952;51.938;15.480;2023-02-28T19:05:26;18.70;;;12.00;;
51925;SDS011;37952;51.938;15.480;2023-02-28T19:08:32;18.50;;;13.00;;
51925;SDS011;37952;51.938;15.480;2023-02-28T19:11:35;15.70;;;12.00;;
51925;SDS011;37952;51.938;15.480;2023-02-28T19:19:14;17.10;;;11.40;;
51925;SDS011;37952;51.938;15.480;2023-02-28T19:22:18;19.80;;;12.90;;
51925;SDS011;37952;51.938;15.480;2023-02-28T19:30:18;18.90;;;13.20;;
51925;SDS011;37952;51.938;15.480;2023-02-28T19:33:22;21.00;;;13.40;;
51925;SDS011;37952;51.938;15.480;2023-02-28T19:36:25;25.60;;;14.60;;
51925;SDS011;37952;51.938;15.480;2023-02-28T19:39:29;19.50;;;13.90;;
51925;SDS011;37952;51.938;15.480;2023-02-28T19:42:42;25.80;;;14.80;;
51925;SDS011;37952;51.938;15.480;2023-02-28T19:49:21;23.30;;;14.40;;
51925;SDS011;37952;51.938;15.480;2023-02-28T19:52:27;19.90;;;13.50;;
51925;SDS011;37952;51.938;15.480;2023-02-28T19:55:41;18.70;;;14.00;;
51925;SDS011;37952;51.938;15.480;2023-02-28T19:58:44;24.80;;;16.00;;
51925;SDS011;37952;51.938;15.480;2023-02-28T20:01:47;23.00;;;15.00;;
51925;SDS011;37952;51.938;15.480;2023-02-28T20:04:51;23.40;;;14.70;;
51925;SDS011;37952;51.938;15.480;2023-02-28T20:07:55;22.50;;;15.50;;
51925;SDS011;37952;51.938;15.480;2023-02-28T20:11:02;25.80;;;16.70;;
51925;SDS011;37952;51.938;15.480;2023-02-28T20:14:07;26.10;;;16.80;;
51925;SDS011;37952;51.938;15.480;2023-02-28T20:17:10;24.90;;;16.80;;
51925;SDS011;37952;51.938;15.480;2023-02-28T20:20:13;29.70;;;16.80;;
51925;SDS011;37952;51.938;15.480;2023-02-28T20:23:16;30.90;;;16.20;;
51925;SDS011;37952;51.938;15.480;2023-02-28T20:26:19;24.30;;;15.60;;
51925;SDS011;37952;51.938;15.480;2023-02-28T20:29:22;25.20;;;16.30;;
51925;SDS011;37952;51.938;15.480;2023-02-28T20:32:25;25.30;;;15.00;;
51925;SDS011;37952;51.938;15.480;2023-02-28T20:35:29;27.30;;;15.40;;
51925;SDS011;37952;51.938;15.480;2023-02-28T20:38:33;24.50;;;15.40;;
51925;SDS011;37952;51.938;15.480;2023-02-28T20:41:36;22.00;;;15.90;;
51925;SDS011;37952;51.938;15.480;2023-02-28T20:44:39;20.80;;;14.10;;
51925;SDS011;37952;51.938;15.480;2023-02-28T20:47:43;25.50;;;14.50;;
51925;SDS011;37952;51.938;15.480;2023-02-28T20:50:49;19.70;;;14.40;;
51925;SDS011;37952;51.938;15.480;2023-02-28T20:53:53;21.20;;;14.30;;
51925;SDS011;37952;51.938;15.480;2023-02-28T20:56:56;20.60;;;14.70;;
51925;SDS011;37952;51.938;15.480;2023-02-28T21:00:00;22.70;;;16.20;;
51925;SDS011;37952;51.938;15.480;2023-02-28T21:03:04;43.90;;;21.90;;
51925;SDS011;37952;51.938;15.480;2023-02-28T21:06:07;47.70;;;25.70;;
51925;SDS011;37952;51.938;15.480;2023-02-28T21:09:12;36.80;;;19.30;;
51925;SDS011;37952;51.938;15.480;2023-02-28T21:12:16;30.30;;;16.50;;
51925;SDS011;37952;51.938;15.480;2023-02-28T21:15:20;21.90;;;14.40;;
51925;SDS011;37952;51.938;15.480;2023-02-28T21:18:24;22.00;;;13.50;;
51925;SDS011;37952;51.938;15.480;2023-02-28T21:21:30;17.90;;;13.10;;
51925;SDS011;37952;51.938;15.480;2023-02-28T21:24:35;14.90;;;11.60;;
51925;SDS011;37952;51.938;15.480;2023-02-28T21:27:37;18.70;;;12.30;;
51925;SDS011;37952;51.938;15.480;2023-02-28T21:30:43;18.10;;;12.10;;
51925;SDS011;37952;51.938;15.480;2023-02-28T21:33:46;17.90;;;13.00;;
51925;SDS011;37952;51.938;15.480;2023-02-28T21:36:49;18.70;;;13.30;;
51925;SDS011;37952;51.938;15.480;2023-02-28T21:39:58;16.80;;;12.70;;
51925;SDS011;37952;51.938;15.480;2023-02-28T21:43:01;19.40;;;12.90;;
51925;SDS011;37952;51.938;15.480;2023-02-28T21:46:11;16.20;;;11.90;;
51925;SDS011;37952;51.938;15.480;2023-02-28T21:49:21;17.20;;;12.30;;
51925;SDS011;37952;51.938;15.480;2023-02-28T21:52:24;19.00;;;12.80;;
51925;SDS011;37952;51.938;15.480;2023-02-28T21:55:27;18.20;;;13.80;;
51925;SDS011;37952;51.938;15.480;2023-02-28T22:02:09;22.90;;;14.80;;
51925;SDS011;37952;51.938;15.480;2023-02-28T22:05:12;20.70;;;14.70;;
51925;SDS011;37952;51.938;15.480;2023-02-28T22:08:15;21.50;;;15.00;;
51925;SDS011;37952;51.938;15.480;2023-02-28T22:11:18;28.70;;;16.60;;
51925;SDS011;37952;51.938;15.480;2023-02-28T22:14:22;31.90;;;19.10;;
51925;SDS011;37952;51.938;15.480;2023-02-28T22:17:26;35.30;;;20.10;;
51925;SDS011;37952;51.938;15.480;2023-02-28T22:20:28;38.00;;;20.20;;
51925;SDS011;37952;51.938;15.480;2023-02-28T22:23:34;27.30;;;17.80;;
51925;SDS011;37952;51.938;15.480;2023-02-28T22:26:38;28.10;;;17.00;;
51925;SDS011;37952;51.938;15.480;2023-02-28T22:30:04;22.90;;;15.90;;